sensor_id;sensor_type;location;lat;lon;timestamp;temperature;humidity
15409;DHT22;7803;48.130;13.788;2022-08-19T00:08:39;25.20;99.90
15409;DHT22;7803;48.130;13.788;2022-08-19T00:11:58;25.20;99.90
15409;DHT22;7803;48.130;13.788;2022-08-19T00:15:17;25.30;99.90
15409;DHT22;7803;48.130;13.788;2022-08-19T00:18:34;25.30;99.90
15409;DHT22;7803;48.130;13.788;2022-08-19T00:21:39;25.30;99.90
15409;DHT22;7803;48.130;13.788;2022-08-19T00:24:43;25.20;99.90
15409;DHT22;7803;48.130;13.788;2022-08-19T00:27:45;25.20;99.90
15409;DHT22;7803;48.130;13.788;2022-08-19T00:30:48;25.20;99.90
15409;DHT22;7803;48.130;13.788;2022-08-19T00:33:52;25.30;99.90
15409;DHT22;7803;48.130;13.788;2022-08-19T00:36:55;25.30;99.90
15409;DHT22;7803;48.130;13.788;2022-08-19T00:39:58;25.20;99.90
15409;DHT22;7803;48.130;13.788;2022-08-19T00:43:07;25.20;99.90
15409;DHT22;7803;48.130;13.788;2022-08-19T00:46:10;25.20;99.90
15409;DHT22;7803;48.130;13.788;2022-08-19T00:49:29;25.20;99.90
15409;DHT22;7803;48.130;13.788;2022-08-19T00:52:40;25.20;99.90
15409;DHT22;7803;48.130;13.788;2022-08-19T00:56:10;25.20;99.90
15409;DHT22;7803;48.130;13.788;2022-08-19T00:59:13;25.20;99.90
15409;DHT22;7803;48.130;13.788;2022-08-19T01:02:15;25.20;99.90
15409;DHT22;7803;48.130;13.788;2022-08-19T01:05:20;25.20;99.90
15409;DHT22;7803;48.130;13.788;2022-08-19T01:08:23;25.20;99.90
15409;DHT22;7803;48.130;13.788;2022-08-19T01:11:27;25.20;99.90
15409;DHT22;7803;48.130;13.788;2022-08-19T01:14:30;25.20;99.90
15409;DHT22;7803;48.130;13.788;2022-08-19T01:17:32;25.20;99.90
15409;DHT22;7803;48.130;13.788;2022-08-19T01:20:35;25.20;99.90
15409;DHT22;7803;48.130;13.788;2022-08-19T01:23:38;25.20;99.90
15409;DHT22;7803;48.130;13.788;2022-08-19T01:26:47;25.20;99.90
15409;DHT22;7803;48.130;13.788;2022-08-19T01:29:49;25.20;99.90
15409;DHT22;7803;48.130;13.788;2022-08-19T01:32:52;25.20;99.90
15409;DHT22;7803;48.130;13.788;2022-08-19T01:36:03;25.20;99.90
15409;DHT22;7803;48.130;13.788;2022-08-19T01:39:10;25.20;99.90
15409;DHT22;7803;48.130;13.788;2022-08-19T01:42:13;25.20;99.90
15409;DHT22;7803;48.130;13.788;2022-08-19T01:45:15;25.20;99.90
15409;DHT22;7803;48.130;13.788;2022-08-19T01:48:17;25.20;99.90
15409;DHT22;7803;48.130;13.788;2022-08-19T01:51:19;25.20;99.90
15409;DHT22;7803;48.130;13.788;2022-08-19T01:54:23;25.20;99.90
15409;DHT22;7803;48.130;13.788;2022-08-19T01:57:26;25.20;99.90
15409;DHT22;7803;48.130;13.788;2022-08-19T02:00:30;25.20;99.90
15409;DHT22;7803;48.130;13.788;2022-08-19T02:03:32;25.20;99.90
15409;DHT22;7803;48.130;13.788;2022-08-19T02:06:35;25.20;99.90
15409;DHT22;7803;48.130;13.788;2022-08-19T02:09:39;25.20;99.90
15409;DHT22;7803;48.130;13.788;2022-08-19T02:12:41;25.20;99.90
15409;DHT22;7803;48.130;13.788;2022-08-19T02:15:43;25.20;99.90
15409;DHT22;7803;48.130;13.788;2022-08-19T02:18:46;25.20;99.90
15409;DHT22;7803;48.130;13.788;2022-08-19T02:21:49;25.20;99.90
15409;DHT22;7803;48.130;13.788;2022-08-19T02:24:53;25.20;99.90
15409;DHT22;7803;48.130;13.788;2022-08-19T02:27:55;25.20;99.90
15409;DHT22;7803;48.130;13.788;2022-08-19T02:30:57;25.20;99.90
15409;DHT22;7803;48.130;13.788;2022-08-19T02:34:01;25.20;99.90
15409;DHT22;7803;48.130;13.788;2022-08-19T02:37:03;25.20;99.90
15409;DHT22;7803;48.130;13.788;2022-08-19T02:40:07;25.20;99.90
15409;DHT22;7803;48.130;13.788;2022-08-19T02:43:09;25.10;99.90
15409;DHT22;7803;48.130;13.788;2022-08-19T02:46:13;25.20;99.90
15409;DHT22;7803;48.130;13.788;2022-08-19T02:49:15;25.20;99.90
15409;DHT22;7803;48.130;13.788;2022-08-19T02:52:17;25.20;99.90
15409;DHT22;7803;48.130;13.788;2022-08-19T02:55:21;25.20;99.90
15409;DHT22;7803;48.130;13.788;2022-08-19T02:58:23;25.10;99.90
15409;DHT22;7803;48.130;13.788;2022-08-19T03:01:29;25.10;99.90
15409;DHT22;7803;48.130;13.788;2022-08-19T03:04:31;25.10;99.90
15409;DHT22;7803;48.130;13.788;2022-08-19T03:07:33;25.20;99.90
15409;DHT22;7803;48.130;13.788;2022-08-19T03:10:41;25.10;99.90
15409;DHT22;7803;48.130;13.788;2022-08-19T03:13:45;25.20;99.90
15409;DHT22;7803;48.130;13.788;2022-08-19T03:16:51;25.20;99.90
15409;DHT22;7803;48.130;13.788;2022-08-19T03:19:53;25.10;99.90
15409;DHT22;7803;48.130;13.788;2022-08-19T03:22:55;25.10;99.90
15409;DHT22;7803;48.130;13.788;2022-08-19T03:26:03;25.10;99.90
15409;DHT22;7803;48.130;13.788;2022-08-19T03:29:06;25.10;99.90
15409;DHT22;7803;48.130;13.788;2022-08-19T03:32:11;25.10;99.90
15409;DHT22;7803;48.130;13.788;2022-08-19T03:35:13;25.10;99.90
15409;DHT22;7803;48.130;13.788;2022-08-19T03:38:15;25.10;99.90
15409;DHT22;7803;48.130;13.788;2022-08-19T03:41:20;25.10;99.90
15409;DHT22;7803;48.130;13.788;2022-08-19T03:44:23;25.10;99.90
15409;DHT22;7803;48.130;13.788;2022-08-19T03:47:25;25.10;99.90
15409;DHT22;7803;48.130;13.788;2022-08-19T03:50:27;25.10;99.90
15409;DHT22;7803;48.130;13.788;2022-08-19T03:53:30;25.10;99.90
15409;DHT22;7803;48.130;13.788;2022-08-19T03:56:35;25.10;99.90
15409;DHT22;7803;48.130;13.788;2022-08-19T03:59:38;25.10;99.90
15409;DHT22;7803;48.130;13.788;2022-08-19T04:02:40;25.10;99.90
15409;DHT22;7803;48.130;13.788;2022-08-19T04:05:44;25.10;99.90
15409;DHT22;7803;48.130;13.788;2022-08-19T04:08:47;25.10;99.90
15409;DHT22;7803;48.130;13.788;2022-08-19T04:11:52;25.00;99.90
15409;DHT22;7803;48.130;13.788;2022-08-19T04:14:55;25.10;99.90
15409;DHT22;7803;48.130;13.788;2022-08-19T04:17:57;25.00;99.90
15409;DHT22;7803;48.130;13.788;2022-08-19T04:20:59;25.10;99.90
15409;DHT22;7803;48.130;13.788;2022-08-19T04:24:01;25.10;99.90
15409;DHT22;7803;48.130;13.788;2022-08-19T04:27:05;25.00;99.90
15409;DHT22;7803;48.130;13.788;2022-08-19T04:30:08;25.00;99.90
15409;DHT22;7803;48.130;13.788;2022-08-19T04:33:11;25.10;99.90
15409;DHT22;7803;48.130;13.788;2022-08-19T04:36:16;25.00;99.90
15409;DHT22;7803;48.130;13.788;2022-08-19T04:39:25;25.00;99.90
15409;DHT22;7803;48.130;13.788;2022-08-19T04:42:49;25.00;99.90
15409;DHT22;7803;48.130;13.788;2022-08-19T04:45:50;25.00;99.90
15409;DHT22;7803;48.130;13.788;2022-08-19T04:48:52;25.10;99.90
15409;DHT22;7803;48.130;13.788;2022-08-19T04:51:57;25.00;99.90
15409;DHT22;7803;48.130;13.788;2022-08-19T04:54:59;25.00;99.90
15409;DHT22;7803;48.130;13.788;2022-08-19T04:58:02;25.00;99.90
15409;DHT22;7803;48.130;13.788;2022-08-19T05:01:04;25.10;99.90
15409;DHT22;7803;48.130;13.788;2022-08-19T05:04:07;25.10;99.90
15409;DHT22;7803;48.130;13.788;2022-08-19T05:07:08;25.10;99.90
15409;DHT22;7803;48.130;13.788;2022-08-19T05:10:11;25.10;99.90
15409;DHT22;7803;48.130;13.788;2022-08-19T05:13:16;25.10;99.90
15409;DHT22;7803;48.130;13.788;2022-08-19T05:16:20;25.00;99.90
15409;DHT22;7803;48.130;13.788;2022-08-19T05:19:22;25.00;99.90
15409;DHT22;7803;48.130;13.788;2022-08-19T05:22:42;24.90;99.90
15409;DHT22;7803;48.130;13.788;2022-08-19T05:25:45;25.00;99.90
15409;DHT22;7803;48.130;13.788;2022-08-19T05:28:48;25.00;99.90
15409;DHT22;7803;48.130;13.788;2022-08-19T05:31:51;25.00;99.90
15409;DHT22;7803;48.130;13.788;2022-08-19T05:34:54;25.00;99.90
15409;DHT22;7803;48.130;13.788;2022-08-19T05:37:56;25.00;99.90
15409;DHT22;7803;48.130;13.788;2022-08-19T05:40:58;25.00;99.90
15409;DHT22;7803;48.130;13.788;2022-08-19T05:44:04;24.90;99.90
15409;DHT22;7803;48.130;13.788;2022-08-19T05:47:10;24.90;99.90
15409;DHT22;7803;48.130;13.788;2022-08-19T05:50:13;24.90;99.90
15409;DHT22;7803;48.130;13.788;2022-08-19T05:53:15;24.90;99.90
15409;DHT22;7803;48.130;13.788;2022-08-19T05:56:17;24.90;99.90
15409;DHT22;7803;48.130;13.788;2022-08-19T05:59:22;24.90;99.90
15409;DHT22;7803;48.130;13.788;2022-08-19T06:02:24;24.90;99.90
15409;DHT22;7803;48.130;13.788;2022-08-19T06:05:26;25.00;99.90
15409;DHT22;7803;48.130;13.788;2022-08-19T06:08:29;24.90;99.90
15409;DHT22;7803;48.130;13.788;2022-08-19T06:11:36;24.90;99.90
15409;DHT22;7803;48.130;13.788;2022-08-19T06:14:40;24.90;99.90
15409;DHT22;7803;48.130;13.788;2022-08-19T06:17:42;25.00;99.90
15409;DHT22;7803;48.130;13.788;2022-08-19T06:20:45;25.00;99.90
15409;DHT22;7803;48.130;13.788;2022-08-19T06:23:50;25.00;99.90
15409;DHT22;7803;48.130;13.788;2022-08-19T06:26:55;25.00;99.90
15409;DHT22;7803;48.130;13.788;2022-08-19T06:29:58;25.00;99.90
15409;DHT22;7803;48.130;13.788;2022-08-19T06:33:00;25.00;99.90
15409;DHT22;7803;48.130;13.788;2022-08-19T06:36:03;25.00;99.90
15409;DHT22;7803;48.130;13.788;2022-08-19T06:39:08;25.00;99.90
15409;DHT22;7803;48.130;13.788;2022-08-19T06:42:12;25.00;99.90
15409;DHT22;7803;48.130;13.788;2022-08-19T06:45:18;25.00;99.90
15409;DHT22;7803;48.130;13.788;2022-08-19T06:48:21;25.00;99.90
15409;DHT22;7803;48.130;13.788;2022-08-19T06:51:23;25.00;99.90
15409;DHT22;7803;48.130;13.788;2022-08-19T06:54:26;25.00;99.90
15409;DHT22;7803;48.130;13.788;2022-08-19T06:57:30;25.00;99.90
15409;DHT22;7803;48.130;13.788;2022-08-19T07:00:34;25.00;99.90
15409;DHT22;7803;48.130;13.788;2022-08-19T07:03:37;25.00;99.90
15409;DHT22;7803;48.130;13.788;2022-08-19T07:06:39;24.90;99.90
15409;DHT22;7803;48.130;13.788;2022-08-19T07:09:43;25.00;99.90
15409;DHT22;7803;48.130;13.788;2022-08-19T07:12:45;25.00;99.90
15409;DHT22;7803;48.130;13.788;2022-08-19T07:15:49;25.00;99.90
15409;DHT22;7803;48.130;13.788;2022-08-19T07:18:51;25.00;99.90
15409;DHT22;7803;48.130;13.788;2022-08-19T07:21:54;25.00;99.90
15409;DHT22;7803;48.130;13.788;2022-08-19T07:24:56;25.00;99.90
15409;DHT22;7803;48.130;13.788;2022-08-19T07:27:58;25.00;99.90
15409;DHT22;7803;48.130;13.788;2022-08-19T07:31:01;24.90;99.90
15409;DHT22;7803;48.130;13.788;2022-08-19T07:34:05;24.90;99.90
15409;DHT22;7803;48.130;13.788;2022-08-19T07:37:08;24.90;99.90
15409;DHT22;7803;48.130;13.788;2022-08-19T07:40:11;24.90;99.90
15409;DHT22;7803;48.130;13.788;2022-08-19T07:43:14;24.90;99.90
15409;DHT22;7803;48.130;13.788;2022-08-19T07:46:18;24.90;99.90
15409;DHT22;7803;48.130;13.788;2022-08-19T07:49:21;24.90;99.90
15409;DHT22;7803;48.130;13.788;2022-08-19T07:52:23;24.90;99.90
15409;DHT22;7803;48.130;13.788;2022-08-19T07:55:26;24.80;99.90
15409;DHT22;7803;48.130;13.788;2022-08-19T07:58:28;24.90;99.90
15409;DHT22;7803;48.130;13.788;2022-08-19T08:01:32;24.90;99.90
15409;DHT22;7803;48.130;13.788;2022-08-19T08:04:34;24.90;99.90
15409;DHT22;7803;48.130;13.788;2022-08-19T08:07:55;24.90;99.90
15409;DHT22;7803;48.130;13.788;2022-08-19T08:11:20;24.90;99.90
15409;DHT22;7803;48.130;13.788;2022-08-19T08:14:25;24.90;99.90
15409;DHT22;7803;48.130;13.788;2022-08-19T08:17:30;24.90;99.90
15409;DHT22;7803;48.130;13.788;2022-08-19T08:20:32;24.90;99.90
15409;DHT22;7803;48.130;13.788;2022-08-19T08:23:35;25.00;99.90
15409;DHT22;7803;48.130;13.788;2022-08-19T08:26:37;25.00;99.90
15409;DHT22;7803;48.130;13.788;2022-08-19T08:29:39;25.00;99.90
15409;DHT22;7803;48.130;13.788;2022-08-19T08:32:42;25.00;99.90
15409;DHT22;7803;48.130;13.788;2022-08-19T08:35:44;25.00;99.90
15409;DHT22;7803;48.130;13.788;2022-08-19T08:38:47;25.10;99.90
15409;DHT22;7803;48.130;13.788;2022-08-19T08:41:53;25.10;99.90
15409;DHT22;7803;48.130;13.788;2022-08-19T08:45:00;25.10;99.90
15409;DHT22;7803;48.130;13.788;2022-08-19T08:48:10;25.40;99.90
15409;DHT22;7803;48.130;13.788;2022-08-19T08:51:20;25.70;99.90
15409;DHT22;7803;48.130;13.788;2022-08-19T08:54:26;25.80;99.90
15409;DHT22;7803;48.130;13.788;2022-08-19T08:57:36;25.90;99.90
15409;DHT22;7803;48.130;13.788;2022-08-19T09:00:43;25.90;99.90
15409;DHT22;7803;48.130;13.788;2022-08-19T09:03:47;25.90;99.90
15409;DHT22;7803;48.130;13.788;2022-08-19T09:06:53;25.90;99.90
15409;DHT22;7803;48.130;13.788;2022-08-19T09:10:04;25.80;99.90
15409;DHT22;7803;48.130;13.788;2022-08-19T09:13:14;25.80;99.90
15409;DHT22;7803;48.130;13.788;2022-08-19T09:16:19;25.90;99.90
15409;DHT22;7803;48.130;13.788;2022-08-19T09:19:26;25.80;99.90
15409;DHT22;7803;48.130;13.788;2022-08-19T09:22:28;25.80;99.90
15409;DHT22;7803;48.130;13.788;2022-08-19T09:25:30;25.80;99.90
15409;DHT22;7803;48.130;13.788;2022-08-19T09:28:35;25.80;99.90
15409;DHT22;7803;48.130;13.788;2022-08-19T09:31:38;25.70;99.90
15409;DHT22;7803;48.130;13.788;2022-08-19T09:34:41;25.60;99.90
15409;DHT22;7803;48.130;13.788;2022-08-19T09:37:43;25.60;99.90
15409;DHT22;7803;48.130;13.788;2022-08-19T09:40:46;25.50;99.90
15409;DHT22;7803;48.130;13.788;2022-08-19T09:43:49;25.50;99.90
15409;DHT22;7803;48.130;13.788;2022-08-19T09:46:52;25.50;99.90
15409;DHT22;7803;48.130;13.788;2022-08-19T09:49:56;25.40;99.90
15409;DHT22;7803;48.130;13.788;2022-08-19T09:52:58;25.30;99.90
15409;DHT22;7803;48.130;13.788;2022-08-19T09:56:00;25.40;99.90
15409;DHT22;7803;48.130;13.788;2022-08-19T09:59:02;25.30;99.90
15409;DHT22;7803;48.130;13.788;2022-08-19T10:02:05;25.20;99.90
15409;DHT22;7803;48.130;13.788;2022-08-19T10:05:08;25.20;99.90
15409;DHT22;7803;48.130;13.788;2022-08-19T10:08:30;25.20;99.90
15409;DHT22;7803;48.130;13.788;2022-08-19T10:11:33;25.30;99.90
15409;DHT22;7803;48.130;13.788;2022-08-19T10:14:38;25.30;99.90
15409;DHT22;7803;48.130;13.788;2022-08-19T10:17:40;25.30;99.90
15409;DHT22;7803;48.130;13.788;2022-08-19T10:20:43;25.20;99.90
15409;DHT22;7803;48.130;13.788;2022-08-19T10:23:47;25.30;99.90
15409;DHT22;7803;48.130;13.788;2022-08-19T10:26:50;25.30;99.90
15409;DHT22;7803;48.130;13.788;2022-08-19T10:29:52;25.20;99.90
15409;DHT22;7803;48.130;13.788;2022-08-19T10:32:54;25.20;99.90
15409;DHT22;7803;48.130;13.788;2022-08-19T10:36:00;25.20;99.90
15409;DHT22;7803;48.130;13.788;2022-08-19T10:39:06;25.20;99.90
15409;DHT22;7803;48.130;13.788;2022-08-19T10:42:09;25.20;99.90
15409;DHT22;7803;48.130;13.788;2022-08-19T10:45:13;25.20;99.90
15409;DHT22;7803;48.130;13.788;2022-08-19T10:48:15;25.20;99.90
15409;DHT22;7803;48.130;13.788;2022-08-19T10:51:18;25.20;99.90
15409;DHT22;7803;48.130;13.788;2022-08-19T10:54:38;25.20;99.90
15409;DHT22;7803;48.130;13.788;2022-08-19T10:57:58;25.20;99.90
15409;DHT22;7803;48.130;13.788;2022-08-19T11:01:00;25.20;99.90
15409;DHT22;7803;48.130;13.788;2022-08-19T11:04:03;25.20;99.90
15409;DHT22;7803;48.130;13.788;2022-08-19T11:07:10;25.20;99.90
15409;DHT22;7803;48.130;13.788;2022-08-19T11:10:14;25.20;99.90
15409;DHT22;7803;48.130;13.788;2022-08-19T11:13:19;25.20;99.90
15409;DHT22;7803;48.130;13.788;2022-08-19T11:16:23;25.20;99.90
15409;DHT22;7803;48.130;13.788;2022-08-19T11:19:26;25.20;99.90
15409;DHT22;7803;48.130;13.788;2022-08-19T11:22:29;25.20;99.90
15409;DHT22;7803;48.130;13.788;2022-08-19T11:25:32;25.20;99.90
15409;DHT22;7803;48.130;13.788;2022-08-19T11:28:35;25.30;99.90
15409;DHT22;7803;48.130;13.788;2022-08-19T11:31:39;25.20;99.90
15409;DHT22;7803;48.130;13.788;2022-08-19T11:34:41;25.20;99.90
15409;DHT22;7803;48.130;13.788;2022-08-19T11:37:44;25.20;99.90
15409;DHT22;7803;48.130;13.788;2022-08-19T11:40:54;25.20;99.90
15409;DHT22;7803;48.130;13.788;2022-08-19T11:43:56;25.20;99.90
15409;DHT22;7803;48.130;13.788;2022-08-19T11:46:58;25.20;99.90
15409;DHT22;7803;48.130;13.788;2022-08-19T11:50:01;25.20;99.90
15409;DHT22;7803;48.130;13.788;2022-08-19T11:53:04;25.20;99.90
15409;DHT22;7803;48.130;13.788;2022-08-19T11:56:08;25.20;99.90
15409;DHT22;7803;48.130;13.788;2022-08-19T11:59:10;25.20;99.90
15409;DHT22;7803;48.130;13.788;2022-08-19T12:02:12;25.20;99.90
15409;DHT22;7803;48.130;13.788;2022-08-19T12:05:16;25.20;99.90
15409;DHT22;7803;48.130;13.788;2022-08-19T12:08:19;25.20;99.90
15409;DHT22;7803;48.130;13.788;2022-08-19T12:11:22;25.20;99.90
15409;DHT22;7803;48.130;13.788;2022-08-19T12:14:24;25.20;99.90
15409;DHT22;7803;48.130;13.788;2022-08-19T12:17:28;25.20;99.90
15409;DHT22;7803;48.130;13.788;2022-08-19T12:20:34;25.30;99.90
15409;DHT22;7803;48.130;13.788;2022-08-19T12:23:38;25.20;99.90
15409;DHT22;7803;48.130;13.788;2022-08-19T12:26:40;25.20;99.90
15409;DHT22;7803;48.130;13.788;2022-08-19T12:29:42;25.20;99.90
15409;DHT22;7803;48.130;13.788;2022-08-19T12:32:45;25.20;99.90
15409;DHT22;7803;48.130;13.788;2022-08-19T12:35:47;25.20;99.90
15409;DHT22;7803;48.130;13.788;2022-08-19T12:38:51;25.20;99.90
15409;DHT22;7803;48.130;13.788;2022-08-19T12:41:53;25.30;99.90
15409;DHT22;7803;48.130;13.788;2022-08-19T12:44:56;25.20;99.90
15409;DHT22;7803;48.130;13.788;2022-08-19T12:47:58;25.20;99.90
15409;DHT22;7803;48.130;13.788;2022-08-19T12:51:01;25.20;99.90
15409;DHT22;7803;48.130;13.788;2022-08-19T12:54:08;25.20;99.90
15409;DHT22;7803;48.130;13.788;2022-08-19T12:57:10;25.30;99.90
15409;DHT22;7803;48.130;13.788;2022-08-19T13:00:15;25.20;99.90
15409;DHT22;7803;48.130;13.788;2022-08-19T13:03:17;25.20;99.90
15409;DHT22;7803;48.130;13.788;2022-08-19T13:06:19;25.30;99.90
15409;DHT22;7803;48.130;13.788;2022-08-19T13:09:23;25.30;99.90
15409;DHT22;7803;48.130;13.788;2022-08-19T13:12:25;25.30;99.90
15409;DHT22;7803;48.130;13.788;2022-08-19T13:15:28;25.20;99.90
15409;DHT22;7803;48.130;13.788;2022-08-19T13:18:31;25.30;99.90
15409;DHT22;7803;48.130;13.788;2022-08-19T13:21:33;25.20;99.90
15409;DHT22;7803;48.130;13.788;2022-08-19T13:24:37;25.20;99.90
15409;DHT22;7803;48.130;13.788;2022-08-19T13:27:39;25.30;99.90
15409;DHT22;7803;48.130;13.788;2022-08-19T13:30:41;25.20;99.90
15409;DHT22;7803;48.130;13.788;2022-08-19T13:34:01;25.30;99.90
15409;DHT22;7803;48.130;13.788;2022-08-19T13:37:04;25.30;99.90
15409;DHT22;7803;48.130;13.788;2022-08-19T13:40:10;25.30;99.90
15409;DHT22;7803;48.130;13.788;2022-08-19T13:43:13;25.20;99.90
15409;DHT22;7803;48.130;13.788;2022-08-19T13:46:15;25.30;99.90
15409;DHT22;7803;48.130;13.788;2022-08-19T13:49:18;25.30;99.90
15409;DHT22;7803;48.130;13.788;2022-08-19T13:52:21;25.30;99.90
15409;DHT22;7803;48.130;13.788;2022-08-19T13:55:24;25.30;99.90
15409;DHT22;7803;48.130;13.788;2022-08-19T13:58:27;25.30;99.90
15409;DHT22;7803;48.130;13.788;2022-08-19T14:01:30;25.20;99.90
15409;DHT22;7803;48.130;13.788;2022-08-19T14:04:32;25.30;99.90
15409;DHT22;7803;48.130;13.788;2022-08-19T14:07:34;25.30;99.90
15409;DHT22;7803;48.130;13.788;2022-08-19T14:10:38;25.30;99.90
15409;DHT22;7803;48.130;13.788;2022-08-19T14:13:40;25.30;99.90
15409;DHT22;7803;48.130;13.788;2022-08-19T14:16:42;25.30;99.90
15409;DHT22;7803;48.130;13.788;2022-08-19T14:19:44;25.30;99.90
15409;DHT22;7803;48.130;13.788;2022-08-19T14:22:47;25.30;99.90
15409;DHT22;7803;48.130;13.788;2022-08-19T14:25:51;25.30;99.90
15409;DHT22;7803;48.130;13.788;2022-08-19T14:28:53;25.30;99.90
15409;DHT22;7803;48.130;13.788;2022-08-19T14:31:57;25.30;99.90
15409;DHT22;7803;48.130;13.788;2022-08-19T14:35:00;25.30;99.90
15409;DHT22;7803;48.130;13.788;2022-08-19T14:38:04;25.30;99.90
15409;DHT22;7803;48.130;13.788;2022-08-19T14:41:10;25.30;99.90
15409;DHT22;7803;48.130;13.788;2022-08-19T14:44:12;25.30;99.90
15409;DHT22;7803;48.130;13.788;2022-08-19T14:47:14;25.30;99.90
15409;DHT22;7803;48.130;13.788;2022-08-19T14:50:17;25.30;99.90
15409;DHT22;7803;48.130;13.788;2022-08-19T14:53:19;25.30;99.90
15409;DHT22;7803;48.130;13.788;2022-08-19T14:56:27;25.30;99.90
15409;DHT22;7803;48.130;13.788;2022-08-19T14:59:30;25.20;99.90
15409;DHT22;7803;48.130;13.788;2022-08-19T15:02:32;25.20;99.90
15409;DHT22;7803;48.130;13.788;2022-08-19T15:05:34;25.20;99.90
15409;DHT22;7803;48.130;13.788;2022-08-19T15:08:38;25.20;99.90
15409;DHT22;7803;48.130;13.788;2022-08-19T15:11:42;25.20;99.90
15409;DHT22;7803;48.130;13.788;2022-08-19T15:14:44;25.20;99.90
15409;DHT22;7803;48.130;13.788;2022-08-19T15:17:50;25.20;99.90
15409;DHT22;7803;48.130;13.788;2022-08-19T15:20:53;25.20;99.90
15409;DHT22;7803;48.130;13.788;2022-08-19T15:23:56;25.20;99.90
15409;DHT22;7803;48.130;13.788;2022-08-19T15:27:00;25.20;99.90
15409;DHT22;7803;48.130;13.788;2022-08-19T15:30:03;25.20;99.90
15409;DHT22;7803;48.130;13.788;2022-08-19T15:33:06;25.20;99.90
15409;DHT22;7803;48.130;13.788;2022-08-19T15:36:08;25.20;99.90
15409;DHT22;7803;48.130;13.788;2022-08-19T15:39:12;25.20;99.90
15409;DHT22;7803;48.130;13.788;2022-08-19T15:42:16;25.20;99.90
15409;DHT22;7803;48.130;13.788;2022-08-19T15:45:21;25.20;99.90
15409;DHT22;7803;48.130;13.788;2022-08-19T15:48:24;25.20;99.90
15409;DHT22;7803;48.130;13.788;2022-08-19T15:51:27;25.20;99.90
15409;DHT22;7803;48.130;13.788;2022-08-19T15:54:30;25.20;99.90
15409;DHT22;7803;48.130;13.788;2022-08-19T15:57:34;25.20;99.90
15409;DHT22;7803;48.130;13.788;2022-08-19T16:00:53;25.20;99.90
15409;DHT22;7803;48.130;13.788;2022-08-19T16:04:13;25.20;99.90
15409;DHT22;7803;48.130;13.788;2022-08-19T16:07:33;25.20;99.90
15409;DHT22;7803;48.130;13.788;2022-08-19T16:10:35;25.20;99.90
15409;DHT22;7803;48.130;13.788;2022-08-19T16:13:39;25.20;99.90
15409;DHT22;7803;48.130;13.788;2022-08-19T16:16:42;25.20;99.90
15409;DHT22;7803;48.130;13.788;2022-08-19T16:19:46;25.20;99.90
15409;DHT22;7803;48.130;13.788;2022-08-19T16:22:48;25.20;99.90
15409;DHT22;7803;48.130;13.788;2022-08-19T16:25:50;25.20;99.90
15409;DHT22;7803;48.130;13.788;2022-08-19T16:28:54;25.20;99.90
15409;DHT22;7803;48.130;13.788;2022-08-19T16:31:56;25.20;99.90
15409;DHT22;7803;48.130;13.788;2022-08-19T16:34:58;25.20;99.90
15409;DHT22;7803;48.130;13.788;2022-08-19T16:38:04;25.20;99.90
15409;DHT22;7803;48.130;13.788;2022-08-19T16:41:06;25.20;99.90
15409;DHT22;7803;48.130;13.788;2022-08-19T16:44:12;25.20;99.90
15409;DHT22;7803;48.130;13.788;2022-08-19T16:47:14;25.10;99.90
15409;DHT22;7803;48.130;13.788;2022-08-19T16:50:18;25.20;99.90
15409;DHT22;7803;48.130;13.788;2022-08-19T16:53:23;25.20;99.90
15409;DHT22;7803;48.130;13.788;2022-08-19T16:56:28;25.20;99.90
15409;DHT22;7803;48.130;13.788;2022-08-19T16:59:31;25.20;99.90
15409;DHT22;7803;48.130;13.788;2022-08-19T17:02:33;25.20;99.90
15409;DHT22;7803;48.130;13.788;2022-08-19T17:05:41;25.20;99.90
15409;DHT22;7803;48.130;13.788;2022-08-19T17:08:43;25.20;99.90
15409;DHT22;7803;48.130;13.788;2022-08-19T17:11:45;25.20;99.90
15409;DHT22;7803;48.130;13.788;2022-08-19T17:14:49;25.20;99.90
15409;DHT22;7803;48.130;13.788;2022-08-19T17:17:51;25.20;99.90
15409;DHT22;7803;48.130;13.788;2022-08-19T17:20:54;25.20;99.90
15409;DHT22;7803;48.130;13.788;2022-08-19T17:23:56;25.20;99.90
15409;DHT22;7803;48.130;13.788;2022-08-19T17:26:58;25.20;99.90
15409;DHT22;7803;48.130;13.788;2022-08-19T17:30:04;25.20;99.90
15409;DHT22;7803;48.130;13.788;2022-08-19T17:33:06;25.20;99.90
15409;DHT22;7803;48.130;13.788;2022-08-19T17:36:09;25.20;99.90
15409;DHT22;7803;48.130;13.788;2022-08-19T17:39:11;25.20;99.90
15409;DHT22;7803;48.130;13.788;2022-08-19T17:42:13;25.20;99.90
15409;DHT22;7803;48.130;13.788;2022-08-19T17:45:17;25.20;99.90
15409;DHT22;7803;48.130;13.788;2022-08-19T17:48:20;25.20;99.90
15409;DHT22;7803;48.130;13.788;2022-08-19T17:51:39;25.20;99.90
15409;DHT22;7803;48.130;13.788;2022-08-19T17:54:41;25.20;99.90
15409;DHT22;7803;48.130;13.788;2022-08-19T17:57:43;25.20;99.90
15409;DHT22;7803;48.130;13.788;2022-08-19T18:00:46;25.20;99.90
15409;DHT22;7803;48.130;13.788;2022-08-19T18:03:48;25.20;99.90
15409;DHT22;7803;48.130;13.788;2022-08-19T18:06:51;25.20;99.90
15409;DHT22;7803;48.130;13.788;2022-08-19T18:09:53;25.20;99.90
15409;DHT22;7803;48.130;13.788;2022-08-19T18:12:55;25.20;99.90
15409;DHT22;7803;48.130;13.788;2022-08-19T18:15:59;25.30;99.90
15409;DHT22;7803;48.130;13.788;2022-08-19T18:19:01;25.30;99.90
15409;DHT22;7803;48.130;13.788;2022-08-19T18:22:04;25.30;99.90
15409;DHT22;7803;48.130;13.788;2022-08-19T18:25:08;25.30;99.90
15409;DHT22;7803;48.130;13.788;2022-08-19T18:28:12;25.30;99.90
15409;DHT22;7803;48.130;13.788;2022-08-19T18:31:15;25.30;99.90
15409;DHT22;7803;48.130;13.788;2022-08-19T18:34:17;25.30;99.90
15409;DHT22;7803;48.130;13.788;2022-08-19T18:37:20;25.30;99.90
15409;DHT22;7803;48.130;13.788;2022-08-19T18:40:23;25.30;99.90
15409;DHT22;7803;48.130;13.788;2022-08-19T18:43:42;25.20;99.90
15409;DHT22;7803;48.130;13.788;2022-08-19T18:47:04;25.30;99.90
15409;DHT22;7803;48.130;13.788;2022-08-19T18:50:23;25.30;99.90
15409;DHT22;7803;48.130;13.788;2022-08-19T18:53:27;25.30;99.90
15409;DHT22;7803;48.130;13.788;2022-08-19T18:56:29;25.30;99.90
15409;DHT22;7803;48.130;13.788;2022-08-19T18:59:35;25.20;99.90
15409;DHT22;7803;48.130;13.788;2022-08-19T19:02:39;25.20;99.90
15409;DHT22;7803;48.130;13.788;2022-08-19T19:05:41;25.20;99.90
15409;DHT22;7803;48.130;13.788;2022-08-19T19:08:43;25.30;99.90
15409;DHT22;7803;48.130;13.788;2022-08-19T19:11:47;25.30;99.90
15409;DHT22;7803;48.130;13.788;2022-08-19T19:14:49;25.30;99.90
15409;DHT22;7803;48.130;13.788;2022-08-19T19:17:53;25.20;99.90
15409;DHT22;7803;48.130;13.788;2022-08-19T19:20:56;25.20;99.90
15409;DHT22;7803;48.130;13.788;2022-08-19T19:23:58;25.30;99.90
15409;DHT22;7803;48.130;13.788;2022-08-19T19:27:03;25.20;99.90
15409;DHT22;7803;48.130;13.788;2022-08-19T19:30:07;25.30;99.90